Time;durP1;ratioP1;P1;durP2;ratioP2;P2;SDS_P1;SDS_P2;PMS_P1;PMS_P2;Temp;Humidity;BMP_temperature;BMP_pressure;BME280_temperature;BME280_humidity;BME280_pressure;Samples;Min_cycle;Max_cycle;Signal;HPM_P1;HPM_P2
2022/06/13 00:02:22;;;;;;;16.02;5.18;;;;;;;16.71;46.37;99371.72;4963479;28;20648;-67
2022/06/13 00:04:47;;;;;;;;;;;;;;;16.62;46.34;99376.44;4965131;28;20564;-67
2022/06/13 00:07:13;;;;;;;16.90;4.70;;;;;;;16.48;46.50;99362.81;4950113;28;19926;-67
2022/06/13 00:09:39;;;;;;;17.10;5.40;;;;;;;16.44;46.52;99368.16;4966257;28;20065;-68
2022/06/13 00:12:06;;;;;;;17.02;4.82;;;;;;;16.38;46.65;99364.75;4962403;28;20522;-67
2022/06/13 00:14:32;;;;;;;15.73;5.45;;;;;;;16.35;46.92;99359.88;4963958;28;20089;-67
2022/06/13 00:16:58;;;;;;;14.95;5.38;;;;;;;16.28;46.95;99365.06;4963997;28;20047;-68
2022/06/13 00:19:25;;;;;;;13.85;5.10;;;;;;;16.25;47.24;99365.72;4964970;28;20089;-67
2022/06/13 00:21:51;;;;;;;;;;;;;;;16.25;47.14;99365.72;4964645;28;20051;-67
2022/06/13 00:24:17;;;;;;;15.32;5.03;;;;;;;16.24;47.21;99359.41;4963378;28;20377;-69
2022/06/13 00:26:43;;;;;;;15.73;6.10;;;;;;;16.18;47.62;99365.41;4963613;28;20472;-67
2022/06/13 00:29:09;;;;;;;15.82;5.03;;;;;;;16.09;48.05;99360.66;4963814;28;20090;-67
2022/06/13 00:31:35;;;;;;;12.43;4.63;;;;;;;15.99;48.43;99361.78;4964156;28;20055;-67
2022/06/13 00:34:01;;;;;;;20.48;5.57;;;;;;;15.91;48.68;99368.09;4963354;28;20443;-68
2022/06/13 00:36:28;;;;;;;15.38;5.50;;;;;;;15.84;48.87;99346.50;4962603;28;20692;-67
2022/06/13 00:38:55;;;;;;;;;;;;;;;15.76;48.56;99350.03;4965744;28;20399;-68
2022/06/13 00:41:25;;;;;;;18.37;5.67;;;;;;;15.77;49.21;99362.69;4963885;28;19925;-68
2022/06/13 00:43:52;;;;;;;24.45;5.47;;;;;;;15.73;49.22;99354.25;4962203;28;20330;-67
2022/06/13 00:46:21;;;;;;;21.52;5.97;;;;;;;15.72;49.39;99352.63;4967241;28;20054;-68
2022/06/13 00:48:48;;;;;;;23.85;5.85;;;;;;;15.78;49.72;99344.22;4963838;28;20058;-66
2022/06/13 00:51:14;;;;;;;;;;;;;;;15.78;49.73;99349.75;4963815;28;20116;-67
2022/06/13 00:53:42;;;;;;;17.27;4.57;;;;;;;15.78;49.60;99350.53;4966529;28;19926;-68
2022/06/13 00:56:10;;;;;;;;;;;;;;;15.77;49.66;99350.88;4963079;28;20069;-65
2022/06/13 00:58:40;;;;;;;21.02;5.40;;;;;;;15.72;50.18;99347.13;4962907;28;19983;-67
2022/06/13 01:01:07;;;;;;;25.15;5.55;;;;;;;15.68;49.78;99346.13;4964372;28;20128;-67
2022/06/13 01:03:34;;;;;;;19.13;4.72;;;;;;;15.69;49.78;99349.72;4962956;28;20047;-66
2022/06/13 01:06:02;;;;;;;13.32;4.90;;;;;;;15.68;49.65;99356.34;4963400;28;20613;-66
2022/06/13 01:08:32;;;;;;;14.05;5.00;;;;;;;15.66;49.72;99348.41;4966299;28;20101;-67
2022/06/13 01:11:16;;;;;;;17.45;5.18;;;;;;;15.67;49.86;99350.03;4964421;28;20055;-68
2022/06/13 01:14:03;;;;;;;11.93;4.32;;;;;;;15.67;49.54;99347.28;4961362;28;20464;-74
2022/06/13 01:16:38;;;;;;;20.40;4.93;;;;;;;15.70;49.57;99356.84;4962180;28;20047;-73
2022/06/13 01:19:34;;;;;;;14.40;4.75;;;;;;;15.71;49.02;99344.69;4963592;28;20047;-73
2022/06/13 01:22:17;;;;;;;16.95;5.38;;;;;;;15.82;49.12;99350.72;4963447;28;20050;-73
2022/06/13 01:25:11;;;;;;;19.42;5.03;;;;;;;15.93;49.00;99354.00;4966237;28;20119;-73
2022/06/13 01:28:28;;;;;;;22.90;5.10;;;;;;;15.94;49.16;99350.94;4944542;28;20058;-72
2022/06/13 01:31:11;;;;;;;;;;;;;;;15.96;49.25;99356.94;4961182;28;20410;-73
2022/06/13 01:33:48;;;;;;;14.02;4.80;;;;;;;15.98;49.15;99356.59;4962833;28;19925;-67
2022/06/13 01:36:29;;;;;;;16.95;4.35;;;;;;;16.02;48.87;99358.38;4966330;28;20042;-66
2022/06/13 01:39:15;;;;;;;12.15;4.50;;;;;;;15.98;49.34;99346.38;4963807;28;20457;-67
2022/06/13 01:41:53;;;;;;;15.18;4.57;;;;;;;16.07;49.23;99360.19;4962579;28;20486;-71
2022/06/13 01:44:36;;;;;;;16.00;5.15;;;;;;;16.09;49.17;99365.38;4963284;28;20057;-73
2022/06/13 01:47:09;;;;;;;21.20;5.53;;;;;;;16.10;49.24;99355.97;4962171;28;20208;-73
2022/06/13 01:49:49;;;;;;;25.02;5.68;;;;;;;16.11;49.72;99363.13;4945892;28;20043;-72
2022/06/13 01:52:21;;;;;;;31.55;6.03;;;;;;;16.04;50.20;99351.75;4964482;28;20049;-73
2022/06/13 01:54:52;;;;;;;34.13;7.68;;;;;;;16.03;50.82;99350.94;4961827;28;20063;-73
2022/06/13 01:57:28;;;;;;;28.25;5.78;;;;;;;15.96;51.06;99351.41;4964739;28;20043;-73
2022/06/13 02:00:03;;;;;;;21.40;5.47;;;;;;;15.96;51.32;99348.66;4944980;28;20069;-73
2022/06/13 02:02:38;;;;;;;20.63;5.17;;;;;;;15.98;51.28;99351.91;4963776;28;20062;-74
2022/06/13 02:05:11;;;;;;;19.10;5.68;;;;;;;16.01;51.32;99342.19;4960332;28;20390;-73
2022/06/13 02:07:42;;;;;;;22.10;5.22;;;;;;;16.03;51.29;99350.94;4961930;28;20047;-73
2022/06/13 02:10:14;;;;;;;17.73;4.82;;;;;;;16.10;51.25;99347.72;4959064;28;20050;-73
2022/06/13 02:12:42;;;;;;;25.42;5.25;;;;;;;16.18;51.19;99348.84;4961923;28;20038;-73
2022/06/13 02:15:15;;;;;;;19.42;4.43;;;;;;;16.19;51.18;99326.44;4961130;28;20055;-72
2022/06/13 02:17:45;;;;;;;19.10;4.47;;;;;;;16.34;50.69;99347.22;4961401;28;20046;-73
2022/06/13 02:20:16;;;;;;;23.95;4.75;;;;;;;16.46;50.49;99341.06;4959428;28;20070;-71
2022/06/13 02:22:45;;;;;;;17.02;4.30;;;;;;;16.58;50.44;99343.97;4944414;28;20055;-73
2022/06/13 02:25:18;;;;;;;19.02;4.60;;;;;;;16.71;50.20;99339.41;4959653;28;20051;-72
2022/06/13 02:27:50;;;;;;;13.75;4.40;;;;;;;16.79;50.52;99342.47;4962470;28;20104;-73
2022/06/13 02:30:18;;;;;;;16.85;5.22;;;;;;;16.81;50.61;99341.00;4959532;28;20062;-73
2022/06/13 02:32:48;;;;;;;23.10;5.18;;;;;;;16.80;50.78;99346.88;4961239;28;20085;-72
2022/06/13 02:35:21;;;;;;;17.95;5.03;;;;;;;16.70;50.85;99342.47;4964322;28;20078;-72
2022/06/13 02:37:52;;;;;;;17.95;4.57;;;;;;;16.70;50.83;99334.19;4963597;28;20043;-73
2022/06/13 02:40:24;;;;;;;21.63;4.80;;;;;;;16.64;51.64;99341.84;4963057;28;20073;-73
2022/06/13 02:42:55;;;;;;;15.45;5.28;;;;;;;16.61;51.51;99336.97;4962979;28;20517;-72
2022/06/13 02:45:25;;;;;;;17.42;4.35;;;;;;;16.51;51.67;99324.31;4962048;28;20096;-73
2022/06/13 02:47:55;;;;;;;12.70;4.57;;;;;;;16.68;51.79;99342.81;4960951;28;20544;-73
2022/06/13 02:50:27;;;;;;;18.17;4.60;;;;;;;16.78;51.53;99338.06;4959594;28;20163;-72
2022/06/13 02:53:03;;;;;;;13.43;4.75;;;;;;;16.85;51.65;99341.16;4944412;28;20043;-73
2022/06/13 02:55:40;;;;;;;13.77;4.63;;;;;;;16.89;51.68;99330.28;4962060;28;20043;-74
2022/06/13 02:58:17;;;;;;;13.95;4.53;;;;;;;16.96;51.59;99325.03;4963815;28;20104;-73
2022/06/13 03:00:52;;;;;;;17.58;5.00;;;;;;;16.99;51.79;99333.53;4961874;28;20421;-73
2022/06/13 03:03:24;;;;;;;17.23;4.78;;;;;;;17.03;51.60;99328.16;4963406;28;20043;-72
2022/06/13 03:05:57;;;;;;;19.25;5.07;;;;;;;17.01;51.63;99320.19;4963327;28;20138;-75
2022/06/13 03:08:37;;;;;;;14.20;4.97;;;;;;;17.04;51.54;99323.44;4962309;28;20112;-74
2022/06/13 03:11:11;;;;;;;12.93;5.28;;;;;;;17.15;51.33;99319.97;4943811;28;20066;-73
2022/06/13 03:13:55;;;;;;;17.48;5.10;;;;;;;17.31;51.40;99318.63;4962540;28;20077;-73
2022/06/13 03:16:27;;;;;;;20.52;5.15;;;;;;;17.43;51.22;99313.19;4962185;28;20414;-73
2022/06/13 03:18:57;;;;;;;21.70;5.15;;;;;;;17.51;50.81;99314.31;4958197;28;20055;-74
2022/06/13 03:21:32;;;;;;;13.55;4.93;;;;;;;17.47;50.69;99318.84;4962466;28;20054;-73
2022/06/13 03:24:05;;;;;;;22.17;5.30;;;;;;;17.44;50.74;99314.81;4960419;28;20531;-74
2022/06/13 03:26:37;;;;;;;21.85;4.93;;;;;;;17.40;50.89;99309.16;4938491;28;20081;-72
2022/06/13 03:29:10;;;;;;;14.52;5.22;;;;;;;17.35;51.40;99305.75;4928656;28;20043;-73
2022/06/13 03:31:41;;;;;;;19.17;5.13;;;;;;;17.32;51.49;99306.44;4960288;28;20096;-73
2022/06/13 03:34:13;;;;;;;17.50;5.03;;;;;;;17.35;51.40;99303.00;4958728;28;20070;-73
2022/06/13 03:36:44;;;;;;;14.02;4.75;;;;;;;17.43;51.50;99304.91;4960440;28;20054;-73
2022/06/13 03:39:16;;;;;;;19.70;5.07;;;;;;;17.49;51.31;99308.31;4962681;28;20196;-73
2022/06/13 03:41:46;;;;;;;16.75;4.40;;;;;;;17.59;51.37;99305.13;4964482;28;20088;-67
2022/06/13 03:44:18;;;;;;;14.05;4.78;;;;;;;17.68;50.97;99303.13;4965611;28;20133;-68
2022/06/13 03:46:49;;;;;;;19.20;5.07;;;;;;;17.72;51.24;99306.06;5016578;28;20068;-68
2022/06/13 03:49:24;;;;;;;22.48;5.68;;;;;;;17.73;51.27;99310.44;5064268;28;20071;-67
2022/06/13 03:51:54;;;;;;;26.10;5.70;;;;;;;17.76;51.00;99303.41;4990737;28;20528;-67
2022/06/13 03:54:24;;;;;;;15.50;5.07;;;;;;;17.81;51.21;99306.00;4958960;28;20050;-68
2022/06/13 03:56:58;;;;;;;14.95;4.82;;;;;;;17.88;50.93;99309.03;4963335;28;20057;-67
2022/06/13 03:59:30;;;;;;;18.90;4.75;;;;;;;17.91;50.76;99305.56;4950952;28;20094;-73
2022/06/13 04:02:01;;;;;;;19.73;5.10;;;;;;;17.94;50.45;99299.38;4963379;28;20042;-74
2022/06/13 04:04:33;;;;;;;19.15;5.15;;;;;;;17.97;50.59;99298.72;4962867;28;20047;-74
2022/06/13 04:07:01;;;;;;;23.40;4.75;;;;;;;17.98;50.68;99294.81;4949149;28;20120;-73
2022/06/13 04:09:32;;;;;;;17.58;4.47;;;;;;;18.07;50.54;99292.00;4963828;28;20560;-73
2022/06/13 04:12:20;;;;;;;21.67;4.90;;;;;;;18.14;50.31;99288.69;4965782;28;19926;-67
2022/06/13 04:15:05;;;;;;;20.40;5.20;;;;;;;18.14;50.55;99292.25;4962663;28;20077;-67
2022/06/13 04:17:42;;;;;;;19.30;4.73;;;;;;;18.20;50.44;99290.09;4622873;28;10000859;-66
2022/06/13 04:20:17;;;;;;;20.35;5.03;;;;;;;18.21;50.39;99282.63;4979135;28;20581;-67
2022/06/13 04:22:50;;;;;;;19.33;4.82;;;;;;;18.28;50.56;99292.00;4972853;28;20043;-68
2022/06/13 04:25:24;;;;;;;19.35;4.78;;;;;;;18.35;50.52;99285.09;4961093;28;20073;-66
2022/06/13 04:27:59;;;;;;;25.73;4.93;;;;;;;18.48;50.16;99283.97;4960667;28;20501;-67
2022/06/13 04:30:29;;;;;;;16.50;4.97;;;;;;;18.58;50.17;99281.94;4962753;28;20121;-66
2022/06/13 04:33:02;;;;;;;13.00;4.65;;;;;;;18.75;49.60;99267.91;4943758;28;20047;-67
2022/06/13 04:35:29;;;;;;;15.70;4.50;;;;;;;18.99;49.56;99275.47;4957557;28;20434;-67
2022/06/13 04:37:57;;;;;;;17.10;5.03;;;;;;;19.21;49.12;99275.38;4976985;28;20047;-66
2022/06/13 04:40:26;;;;;;;24.00;5.30;;;;;;;19.36;48.83;99277.47;4973483;28;20041;-66
2022/06/13 04:42:55;;;;;;;26.52;5.25;;;;;;;19.51;48.87;99283.44;5068642;28;20049;-68
2022/06/13 04:45:24;;;;;;;21.33;5.75;;;;;;;19.63;48.20;99283.44;5053110;28;20044;-67
2022/06/13 04:47:53;;;;;;;14.57;4.90;;;;;;;19.77;48.05;99282.25;5065135;28;20044;-67
2022/06/13 04:50:27;;;;;;;19.08;5.35;;;;;;;19.91;48.18;99277.13;5062956;28;20048;-68
2022/06/13 04:52:57;;;;;;;17.92;4.97;;;;;;;20.06;48.01;99277.59;5009437;28;20096;-68
2022/06/13 04:55:28;;;;;;;14.10;4.50;;;;;;;20.21;47.62;99276.84;4963111;28;20492;-67
2022/06/13 04:57:54;;;;;;;17.40;4.82;;;;;;;20.36;47.44;99274.47;4962117;28;20047;-66
2022/06/13 05:00:22;;;;;;;16.00;5.40;;;;;;;20.50;46.98;99279.59;4961919;28;20045;-67
2022/06/13 05:02:52;;;;;;;20.58;5.25;;;;;;;20.62;46.88;99273.19;5009556;28;20053;-67
2022/06/13 05:05:39;;;;;;;22.23;5.20;;;;;;;20.69;46.85;99278.94;5010015;28;20051;-67
2022/06/13 05:08:23;;;;;;;16.27;5.43;;;;;;;20.72;46.79;99285.75;4971776;28;20141;-68
2022/06/13 05:10:53;;;;;;;22.50;5.53;;;;;;;20.68;47.28;99277.31;4943389;28;20051;-67
2022/06/13 05:13:21;;;;;;;22.05;5.53;;;;;;;20.54;47.51;99273.00;4961898;28;20046;-68
2022/06/13 05:15:54;;;;;;;17.63;4.93;;;;;;;20.37;48.26;99267.75;4963005;28;20042;-67
2022/06/13 05:18:49;;;;;;;18.00;6.13;;;;;;;20.29;48.41;99275.06;4964246;28;20549;-73
2022/06/13 05:21:22;;;;;;;17.80;6.38;;;;;;;;;;4926718;28;20059;-67
2022/06/13 05:24:09;;;;;;;16.38;5.80;;;;;;;20.48;48.56;99279.97;4962547;28;20061;-67
2022/06/13 05:26:35;;;;;;;21.35;5.57;;;;;;;20.74;48.10;99289.75;4960794;28;20050;-68
2022/06/13 05:29:01;;;;;;;18.42;6.10;;;;;;;20.97;47.47;99275.31;4981407;28;20076;-68
2022/06/13 05:31:29;;;;;;;20.15;6.18;;;;;;;21.21;47.29;99281.84;5032562;28;20100;-68
2022/06/13 05:33:57;;;;;;;22.88;5.72;;;;;;;21.34;46.73;99283.34;4961196;28;20054;-68
2022/06/13 05:36:25;;;;;;;26.45;6.43;;;;;;;21.56;46.46;99289.44;4964847;28;20059;-68
2022/06/13 05:38:56;;;;;;;20.35;6.53;;;;;;;21.79;45.62;99286.81;4965458;28;20050;-68
2022/06/13 05:41:22;;;;;;;25.17;6.38;;;;;;;21.98;45.51;99292.75;4963313;28;20612;-67
2022/06/13 05:43:48;;;;;;;21.83;6.03;;;;;;;22.00;45.33;99290.41;4965076;28;20042;-67
2022/06/13 05:46:17;;;;;;;21.55;6.13;;;;;;;22.04;45.45;99289.31;4966539;28;20141;-67
2022/06/13 05:48:43;;;;;;;17.60;5.97;;;;;;;22.09;45.49;99277.91;4965887;28;20047;-67
2022/06/13 05:51:09;;;;;;;25.05;6.90;;;;;;;22.16;45.71;99282.78;4962075;28;20628;-67
2022/06/13 05:53:35;;;;;;;16.83;5.80;;;;;;;22.33;45.52;99275.19;4947077;28;20046;-67
2022/06/13 05:56:03;;;;;;;19.60;6.13;;;;;;;22.47;45.33;99272.69;4961476;28;20057;-67
2022/06/13 05:58:29;;;;;;;14.38;4.93;;;;;;;22.67;45.78;99289.41;4963358;28;20074;-68
2022/06/13 06:01:01;;;;;;;18.80;5.22;;;;;;;22.71;46.14;99281.09;4964126;28;20143;-67
2022/06/13 06:03:27;;;;;;;22.27;5.13;;;;;;;22.79;45.94;99271.69;4965532;28;20038;-67
2022/06/13 06:05:54;;;;;;;13.57;4.88;;;;;;;23.09;45.70;99280.16;4959567;28;20039;-67
2022/06/13 06:08:22;;;;;;;18.42;5.05;;;;;;;23.22;45.45;99272.44;4956542;28;20074;-68
2022/06/13 06:10:50;;;;;;;16.67;5.07;;;;;;;23.36;44.89;99271.88;4960321;28;20108;-67
2022/06/13 06:13:18;;;;;;;10.93;4.63;;;;;;;23.26;45.47;99264.16;4960963;28;20066;-68
2022/06/13 06:15:46;;;;;;;14.77;4.75;;;;;;;23.26;45.86;99278.09;4947419;28;20100;-67
2022/06/13 06:18:13;;;;;;;23.45;5.55;;;;;;;23.14;46.02;99269.91;4963775;28;20059;-66
2022/06/13 06:20:40;;;;;;;17.35;5.00;;;;;;;23.03;46.29;99269.72;4961715;28;20053;-67
2022/06/13 06:23:07;;;;;;;20.67;5.35;;;;;;;23.07;46.58;99273.38;4962029;28;21673;-69
2022/06/13 06:25:34;;;;;;;17.90;5.75;;;;;;;23.11;46.28;99279.00;4960339;28;20101;-69
2022/06/13 06:28:00;;;;;;;;;;;;;;;23.11;46.58;99277.00;4963838;28;20075;-68
2022/06/13 06:30:28;;;;;;;21.88;5.13;;;;;;;22.98;46.90;99276.41;4965113;28;19948;-68
2022/06/13 06:32:55;;;;;;;18.33;5.55;;;;;;;22.90;47.14;99269.09;4952021;28;20430;-68
2022/06/13 06:35:23;;;;;;;18.48;5.57;;;;;;;22.88;47.22;99274.22;4960885;28;20043;-68
2022/06/13 06:37:51;;;;;;;13.43;5.28;;;;;;;22.96;47.01;99273.19;4977624;28;20044;-75
2022/06/13 06:40:19;;;;;;;13.75;5.53;;;;;;;23.07;47.18;99271.38;4985057;28;20062;-73
2022/06/13 06:42:46;;;;;;;17.02;5.53;;;;;;;23.16;47.01;99273.13;4963645;28;20187;-68
2022/06/13 06:45:13;;;;;;;15.32;6.10;;;;;;;23.25;46.78;99282.00;4960846;28;20579;-73
2022/06/13 06:47:41;;;;;;;15.82;6.07;;;;;;;23.39;46.38;99273.09;4960592;28;20531;-74
2022/06/13 06:50:11;;;;;;;20.40;5.90;;;;;;;23.45;46.48;99274.38;4960597;28;20051;-73
2022/06/13 06:52:38;;;;;;;22.63;7.00;;;;;;;23.57;46.22;99267.00;4946802;28;20513;-74
2022/06/13 07:00:36;;;;;;;20.92;6.13;;;;;;;23.83;46.13;99265.38;4960532;28;20050;-75
2022/06/13 07:03:04;;;;;;;17.50;6.22;;;;;;;24.03;45.74;99260.44;4962841;28;20069;-74
2022/06/13 07:05:30;;;;;;;23.63;7.72;;;;;;;24.32;45.22;99263.59;4943287;28;20051;-67
2022/06/13 07:07:56;;;;;;;24.45;7.35;;;;;;;24.42;44.95;99268.50;4962786;28;20047;-68
2022/06/13 07:10:22;;;;;;;20.65;7.07;;;;;;;24.51;44.64;99265.41;4961560;28;20575;-68
2022/06/13 07:12:47;;;;;;;26.30;7.45;;;;;;;24.50;44.57;99269.38;4966379;28;20525;-67
2022/06/13 07:15:14;;;;;;;17.90;6.97;;;;;;;24.36;45.12;99268.03;4947254;28;20047;-67
2022/06/13 07:17:40;;;;;;;18.38;6.43;;;;;;;24.23;45.27;99263.88;4964247;28;20053;-67
2022/06/13 07:20:10;;;;;;;15.32;6.65;;;;;;;24.20;45.08;99271.06;4965068;28;20051;-67
2022/06/13 07:22:36;;;;;;;27.65;6.60;;;;;;;24.16;44.79;99250.63;4963020;28;20656;-67
2022/06/13 07:25:02;;;;;;;23.88;6.55;;;;;;;24.12;45.11;99260.97;4962296;28;20046;-67
2022/06/13 07:27:30;;;;;;;19.25;6.72;;;;;;;24.25;45.03;99266.31;4963696;28;20510;-67
2022/06/13 07:29:57;;;;;;;22.65;6.57;;;;;;;24.38;44.69;99248.13;4961609;28;20080;-67
2022/06/13 07:32:25;;;;;;;20.10;6.67;;;;;;;24.63;44.51;99256.75;4963167;28;20047;-67
2022/06/13 07:34:53;;;;;;;20.20;6.47;;;;;;;24.71;43.92;99259.59;4964010;28;20046;-67
2022/06/13 07:40:09;;;;;;;15.32;5.75;;;;;;;25.25;42.82;99251.69;4945497;28;20158;-68
2022/06/13 07:42:39;;;;;;;20.73;6.63;;;;;;;25.38;42.72;99243.81;4947403;28;20058;-67
2022/06/13 07:45:07;;;;;;;16.55;5.55;;;;;;;25.24;42.12;99247.31;4963930;28;20042;-67
2022/06/13 07:47:33;;;;;;;23.42;6.35;;;;;;;25.25;42.21;99246.09;4963870;28;20066;-68
2022/06/13 07:49:59;;;;;;;19.53;5.77;;;;;;;25.29;42.05;99249.75;4966392;28;20046;-67
2022/06/13 07:52:26;;;;;;;20.40;5.88;;;;;;;25.48;41.75;99254.28;4962752;28;20046;-68
2022/06/13 07:54:52;;;;;;;14.13;5.45;;;;;;;25.47;41.80;99252.66;4962924;28;20051;-74
2022/06/13 07:57:19;;;;;;;17.20;5.82;;;;;;;25.90;40.94;99262.53;4965252;28;20109;-74
2022/06/13 07:59:45;;;;;;;17.90;5.82;;;;;;;25.87;40.76;99240.91;4962260;28;20054;-74
2022/06/13 08:02:15;;;;;;;17.35;6.30;;;;;;;26.00;40.70;99258.16;4620219;28;9999947;-74
2022/06/13 08:04:41;;;;;;;12.65;5.90;;;;;;;26.31;40.07;99258.72;4958598;28;20046;-74
2022/06/13 08:07:09;;;;;;;14.40;6.50;;;;;;;26.52;38.99;99251.56;4923871;29;20070;-74
2022/06/13 08:09:36;;;;;;;15.32;5.53;;;;;;;26.13;39.59;99251.03;4940468;28;20097;-75
2022/06/13 08:12:04;;;;;;;16.48;5.88;;;;;;;25.74;40.46;99243.25;4955522;28;20097;-74
2022/06/13 08:14:30;;;;;;;13.95;6.07;;;;;;;25.51;41.00;99249.09;4941231;28;20107;-74
2022/06/13 08:16:56;;;;;;;16.50;5.95;;;;;;;25.23;42.06;99242.91;4942910;28;20056;-74
2022/06/13 08:19:22;;;;;;;18.93;5.77;;;;;;;25.15;42.54;99242.03;4961157;28;20043;-75
2022/06/13 08:21:51;;;;;;;23.13;6.50;;;;;;;25.15;42.56;99244.06;4963410;28;20281;-73
2022/06/13 08:24:17;;;;;;;21.58;6.50;;;;;;;24.88;43.55;99238.63;4956453;28;20042;-74
2022/06/13 08:26:46;;;;;;;15.57;6.10;;;;;;;24.92;43.61;99243.06;4960321;28;20138;-74
2022/06/13 08:29:12;;;;;;;20.23;6.97;;;;;;;24.85;43.17;99231.03;4956195;28;20086;-67
2022/06/13 08:31:39;;;;;;;19.80;6.22;;;;;;;24.90;43.48;99239.88;4956668;28;20051;-68
2022/06/13 08:34:06;;;;;;;23.17;7.05;;;;;;;24.91;43.76;99227.50;4958506;28;20050;-67
2022/06/13 08:36:33;;;;;;;16.13;6.03;;;;;;;24.97;43.99;99222.31;4958977;28;20437;-68
2022/06/13 08:38:59;;;;;;;16.85;6.25;;;;;;;24.95;43.40;99224.72;4957157;28;20047;-75
2022/06/13 08:41:36;;;;;;;15.30;6.25;;;;;;;24.80;43.56;99231.38;4960930;28;20085;-75
2022/06/13 08:44:28;;;;;;;18.70;6.30;;;;;;;24.67;44.14;99230.81;4944424;28;20046;-75
2022/06/13 08:47:02;;;;;;;19.45;6.78;;;;;;;24.57;44.66;99218.38;4962124;28;20264;-75
2022/06/13 08:49:36;;;;;;;17.90;5.60;;;;;;;24.50;43.85;99214.28;4966635;28;20055;-75
2022/06/13 08:52:15;;;;;;;33.72;6.38;;;;;;;24.47;44.78;99225.47;4966155;28;20082;-74
2022/06/13 08:54:45;;;;;;;18.15;6.00;;;;;;;24.58;44.75;99217.19;4965557;28;20053;-74
2022/06/13 08:57:12;;;;;;;18.20;5.65;;;;;;;24.70;43.97;99222.47;4999759;28;20054;-74
2022/06/13 08:59:44;;;;;;;21.58;5.32;;;;;;;24.84;43.61;99207.84;4960375;28;20484;-75
2022/06/13 09:02:15;;;;;;;21.95;6.13;;;;;;;24.98;43.44;99211.97;4964903;28;20501;-74
2022/06/13 09:04:48;;;;;;;19.40;5.95;;;;;;;25.26;42.52;99207.78;4964224;28;20398;-74
2022/06/13 09:07:20;;;;;;;24.63;5.90;;;;;;;25.60;41.36;99214.00;4943052;28;20145;-69
2022/06/13 09:09:52;;;;;;;14.95;5.63;;;;;;;25.65;41.12;99212.81;4949278;28;20109;-75
2022/06/13 09:12:25;;;;;;;19.38;6.78;;;;;;;26.03;40.92;99209.78;4966872;28;20058;-75
2022/06/13 09:15:00;;;;;;;23.77;5.47;;;;;;;26.64;38.50;99211.94;4930859;28;20308;-74
2022/06/13 09:17:35;;;;;;;17.60;5.60;;;;;;;26.70;38.85;99201.13;4961450;28;20280;-76
2022/06/13 09:20:10;;;;;;;17.80;5.40;;;;;;;26.78;38.94;99207.53;4962993;28;20361;-75
2022/06/13 09:22:43;;;;;;;17.73;5.93;;;;;;;26.70;38.80;99201.13;4951065;28;20043;-75
2022/06/13 09:25:16;;;;;;;18.25;6.28;;;;;;;26.71;38.58;99194.31;4959852;28;20394;-75
2022/06/13 09:27:51;;;;;;;17.05;6.35;;;;;;;26.72;38.40;99191.13;4951152;28;20537;-76
2022/06/13 09:30:24;;;;;;;19.23;6.45;;;;;;;26.21;39.49;99200.66;4953254;28;20376;-74
2022/06/13 09:32:53;;;;;;;18.55;6.53;;;;;;;25.79;40.31;99195.28;4959356;28;20046;-74
2022/06/13 09:35:22;;;;;;;16.08;6.47;;;;;;;25.34;41.62;99199.03;4944746;28;20050;-74
2022/06/13 09:37:53;;;;;;;16.30;5.53;;;;;;;25.21;42.09;99197.75;4958796;28;20054;-74
2022/06/13 09:40:26;;;;;;;18.35;5.93;;;;;;;25.09;42.26;99195.25;4965146;28;20352;-74
2022/06/13 09:43:07;;;;;;;17.98;6.07;;;;;;;24.78;42.80;99199.00;4960287;28;20698;-74
2022/06/13 09:45:46;;;;;;;16.25;5.35;;;;;;;24.20;42.94;99200.44;4947474;28;20082;-74
2022/06/13 09:48:34;;;;;;;19.23;5.50;;;;;;;23.78;44.04;99191.16;4943211;28;20062;-74
2022/06/13 09:51:14;;;;;;;22.83;5.65;;;;;;;23.50;44.82;99195.16;4925460;28;20070;-75
2022/06/13 09:53:49;;;;;;;21.40;5.80;;;;;;;23.37;44.97;99184.22;4944768;28;20043;-74
2022/06/13 09:56:22;;;;;;;17.00;5.55;;;;;;;23.26;44.67;99183.28;4945296;28;20073;-74
2022/06/13 09:59:10;;;;;;;19.23;5.78;;;;;;;23.08;45.35;99186.56;4943030;28;20054;-74
2022/06/13 10:01:45;;;;;;;15.40;5.53;;;;;;;23.06;44.81;99185.34;4941834;28;20363;-74
2022/06/13 10:04:16;;;;;;;17.55;5.15;;;;;;;23.00;44.63;99184.03;4934760;28;20442;-75
2022/06/13 10:06:47;;;;;;;14.70;5.15;;;;;;;22.88;44.36;99185.06;4966789;28;20421;-75
2022/06/13 10:09:31;;;;;;;17.77;5.13;;;;;;;22.82;45.34;99208.84;4962971;28;20055;-75
2022/06/13 10:12:06;;;;;;;14.60;4.95;;;;;;;22.69;46.50;99214.59;4931633;28;20065;-75
2022/06/13 10:15:01;;;;;;;26.35;5.88;;;;;;;22.06;53.53;99245.22;4961018;28;20521;-75
2022/06/13 10:17:49;;;;;;;15.75;6.10;;;;;;;21.11;57.31;99255.41;4925635;28;20127;-75
2022/06/13 10:20:23;;;;;;;14.77;6.03;;;;;;;20.71;59.74;99251.59;4986781;28;20488;-75
2022/06/13 10:22:58;;;;;;;16.58;6.28;;;;;;;20.38;59.01;99236.88;4932839;28;20043;-67
2022/06/13 10:25:54;;;;;;;17.83;6.05;;;;;;;20.04;60.05;99229.97;3916181;28;10021635;-67
2022/06/13 10:28:42;;;;;;;14.93;5.45;;;;;;;19.98;59.65;99221.09;4954533;28;20039;-67
2022/06/13 10:31:16;;;;;;;17.42;5.93;;;;;;;20.18;60.08;99204.56;4959820;28;20058;-67
2022/06/13 10:33:55;;;;;;;14.73;5.57;;;;;;;20.52;59.92;99202.31;4940647;28;20162;-67
2022/06/13 10:36:31;;;;;;;16.77;6.95;;;;;;;20.72;58.76;99183.78;4959905;28;20121;-67
2022/06/13 10:39:03;;;;;;;20.05;6.30;;;;;;;20.93;58.22;99191.88;4941754;28;20666;-68
2022/06/13 10:41:34;;;;;;;12.40;5.70;;;;;;;21.21;58.38;99193.72;4940534;28;20046;-68
2022/06/13 10:44:02;;;;;;;17.48;6.55;;;;;;;21.45;58.73;99191.06;4957144;28;20635;-67
2022/06/13 10:46:29;;;;;;;13.32;6.38;;;;;;;21.61;58.44;99182.66;4960552;28;20548;-67
2022/06/13 10:49:03;;;;;;;21.50;6.85;;;;;;;21.80;60.00;99177.13;4959769;28;20521;-68
2022/06/13 10:51:29;;;;;;;14.52;6.72;;;;;;;22.00;59.10;99162.38;4963502;28;20108;-74
2022/06/13 10:54:11;;;;;;;15.23;6.53;;;;;;;22.20;57.65;99164.00;4959616;28;20043;-75
2022/06/13 10:56:42;;;;;;;17.23;7.72;;;;;;;22.62;57.90;99154.00;4961820;28;20051;-75
2022/06/13 10:59:22;;;;;;;18.02;7.00;;;;;;;23.16;55.91;99156.81;4956819;28;20104;-75
2022/06/13 11:01:53;;;;;;;13.32;6.78;;;;;;;24.20;50.98;99150.16;4944906;28;20628;-74
2022/06/13 11:04:21;;;;;;;14.10;6.63;;;;;;;25.17;48.21;99152.97;4959951;28;20046;-69
2022/06/13 11:06:50;;;;;;;17.70;6.82;;;;;;;25.88;45.18;99156.53;4964104;28;20062;-68
2022/06/13 11:09:23;;;;;;;16.80;7.30;;;;;;;26.28;45.31;99153.06;4965104;28;20047;-67
2022/06/13 11:11:54;;;;;;;18.30;7.57;;;;;;;26.86;42.78;99144.69;4974668;28;20055;-68
2022/06/13 11:14:27;;;;;;;16.40;5.90;;;;;;;26.88;41.68;99137.47;5024193;28;20072;-67
2022/06/13 11:22:39;;;;;;;17.65;5.75;;;;;;;25.45;41.55;99154.31;4964675;28;20051;-68
2022/06/13 11:25:19;;;;;;;19.92;5.85;;;;;;;25.18;39.88;99148.19;4964253;28;20131;-68
2022/06/13 11:27:47;;;;;;;13.98;5.07;;;;;;;24.67;41.50;99150.59;4965659;28;20390;-68
2022/06/13 11:30:43;;;;;;;14.02;4.97;;;;;;;24.31;42.40;99162.25;4965693;28;20070;-68
2022/06/13 11:33:24;;;;;;;22.13;4.80;;;;;;;23.99;42.44;99147.91;4969633;28;20066;-67
2022/06/13 11:35:54;;;;;;;13.15;4.78;;;;;;;23.79;42.40;99154.47;4963461;28;20432;-68
2022/06/13 11:38:23;;;;;;;16.35;5.28;;;;;;;23.53;43.42;99149.78;4964447;28;20059;-68
2022/06/13 11:41:01;;;;;;;15.10;5.35;;;;;;;23.36;44.17;99154.75;4927598;28;20532;-68
2022/06/13 11:43:34;;;;;;;17.63;5.65;;;;;;;23.31;44.22;99157.03;4948585;28;20513;-68
2022/06/13 11:46:04;;;;;;;20.42;5.45;;;;;;;23.22;44.46;99160.06;4964559;28;20508;-68
2022/06/13 11:48:30;;;;;;;16.63;5.47;;;;;;;22.99;44.84;99154.56;4964015;28;20434;-67
2022/06/13 11:51:01;;;;;;;12.02;4.97;;;;;;;22.78;44.91;99155.84;4965204;28;20055;-67
2022/06/13 11:53:37;;;;;;;17.08;5.10;;;;;;;22.62;45.88;99153.19;4965956;28;20497;-67
2022/06/13 11:56:08;;;;;;;14.80;5.50;;;;;;;22.47;45.80;99164.09;4963932;28;20057;-68
2022/06/13 11:58:40;;;;;;;20.25;5.03;;;;;;;22.38;46.43;99146.81;4963769;28;20092;-69
2022/06/13 12:01:16;;;;;;;16.83;4.93;;;;;;;22.43;46.40;99151.25;4963471;28;20061;-68
2022/06/13 12:03:49;;;;;;;15.48;5.07;;;;;;;22.40;46.58;99163.94;4948968;28;20406;-68